Time;durP1;ratioP1;P1;durP2;ratioP2;P2;SDS_P1;SDS_P2;PMS_P1;PMS_P2;Temp;Humidity;BMP_temperature;BMP_pressure;BME280_temperature;BME280_humidity;BME280_pressure;Samples;Min_cycle;Max_cycle;Signal;HPM_P1;HPM_P2
2024/03/03 00:00:14;;;;;;;3.95;2.47;;;;;;;;;;1252458;23;20093;-73
2024/03/03 00:00:45;;;;;;;6.63;3.47;;;;;;;;;;1246765;23;20394;-74
2024/03/03 00:01:15;;;;;;;2.00;1.85;;;;;;;;;;1247297;23;20029;-74
2024/03/03 00:01:46;;;;;;;0.70;0.70;;;;;;;;;;1247183;23;20007;-73
2024/03/03 00:02:16;;;;;;;2.72;1.67;;;;;;;;;;1246694;23;20015;-74
2024/03/03 00:02:47;;;;;;;2.33;2.13;;;;;;;;;;1247301;23;20115;-74
2024/03/03 00:03:17;;;;;;;16.52;2.47;;;;;;;;;;1247133;23;20335;-73
2024/03/03 00:03:48;;;;;;;3.00;2.83;;;;;;;;;;1252744;23;20011;-74
2024/03/03 00:04:18;;;;;;;0.57;0.57;;;;;;;;;;1252852;23;20320;-73
2024/03/03 00:04:48;;;;;;;0.50;0.50;;;;;;;;;;1252944;23;20007;-74
2024/03/03 00:05:19;;;;;;;6.50;1.75;;;;;;;;;;1252549;23;20007;-73
2024/03/03 00:05:50;;;;;;;4.05;2.22;;;;;;;;;;1252859;23;20006;-73
2024/03/03 00:06:20;;;;;;;1.83;1.70;;;;;;;;;;1252672;23;20107;-74
2024/03/03 00:06:51;;;;;;;1.67;1.38;;;;;;;;;;1252326;23;20520;-73
2024/03/03 00:07:21;;;;;;;8.18;2.17;;;;;;;;;;1247427;23;20386;-74
2024/03/03 00:07:51;;;;;;;0.40;0.40;;;;;;;;;;1247454;23;20004;-74
2024/03/03 00:08:23;;;;;;;1.00;1.00;;;;;;;;;;1252548;23;20011;-74
2024/03/03 00:08:56;;;;;;;1.85;1.23;;;;;;;;;;1252899;23;20007;-74
2024/03/03 00:09:26;;;;;;;6.13;3.40;;;;;;;;;;1252972;23;20013;-73
2024/03/03 00:09:57;;;;;;;3.88;1.90;;;;;;;;;;1253033;23;20411;-74
2024/03/03 00:10:27;;;;;;;3.88;1.77;;;;;;;;;;1252786;23;20093;-75
2024/03/03 00:10:58;;;;;;;5.72;2.58;;;;;;;;;;1252780;23;19998;-73
2024/03/03 00:11:28;;;;;;;3.53;3.08;;;;;;;;;;1253005;23;20007;-74
2024/03/03 00:11:59;;;;;;;1.75;1.65;;;;;;;;;;1252766;23;20386;-73
2024/03/03 00:12:29;;;;;;;3.50;2.50;;;;;;;;;;1252580;23;20455;-73
2024/03/03 00:13:00;;;;;;;3.88;1.92;;;;;;;;;;1246847;23;20298;-73
2024/03/03 00:13:31;;;;;;;11.00;1.60;;;;;;;;;;1277969;23;20020;-74
2024/03/03 00:14:02;;;;;;;1.25;1.25;;;;;;;;;;1278049;23;20016;-73
2024/03/03 00:14:34;;;;;;;1.98;1.88;;;;;;;;;;1278324;23;20069;-73
2024/03/03 00:15:05;;;;;;;1.08;1.08;;;;;;;;;;1274614;23;20063;-73
2024/03/03 00:15:36;;;;;;;1.08;0.65;;;;;;;;;;1246945;23;20451;-74
2024/03/03 00:16:06;;;;;;;2.40;2.15;;;;;;;;;;1246951;23;20014;-73
2024/03/03 00:16:40;;;;;;;2.58;2.33;;;;;;;;;;1246792;23;20450;-74
2024/03/03 00:17:12;;;;;;;6.13;2.40;;;;;;;;;;1252922;23;20053;-74
2024/03/03 00:17:42;;;;;;;2.60;2.47;;;;;;;;;;1252961;23;20074;-74
2024/03/03 00:18:13;;;;;;;6.03;1.65;;;;;;;;;;1252013;23;20011;-73
2024/03/03 00:18:43;;;;;;;1.67;1.58;;;;;;;;;;1247137;23;20090;-74
2024/03/03 00:19:14;;;;;;;2.90;2.70;;;;;;;;;;1252985;23;20101;-73
2024/03/03 00:19:44;;;;;;;16.20;2.22;;;;;;;;;;1252965;23;20085;-74
2024/03/03 00:20:15;;;;;;;2.05;0.63;;;;;;;;;;1252590;23;20093;-74
2024/03/03 00:20:45;;;;;;;1.05;0.82;;;;;;;;;;1252692;23;20054;-73
2024/03/03 00:21:15;;;;;;;2.40;2.30;;;;;;;;;;1252740;23;19999;-74
2024/03/03 00:21:46;;;;;;;2.53;2.33;;;;;;;;;;1252118;23;20017;-73
2024/03/03 00:22:16;;;;;;;8.00;3.15;;;;;;;;;;1252613;23;20014;-74
2024/03/03 00:22:47;;;;;;;3.25;2.95;;;;;;;;;;1252833;23;20011;-73
2024/03/03 00:23:17;;;;;;;14.15;2.38;;;;;;;;;;1247112;23;20014;-74
2024/03/03 00:23:48;;;;;;;0.47;0.47;;;;;;;;;;1247827;23;20058;-74
2024/03/03 00:24:18;;;;;;;2.47;2.35;;;;;;;;;;1252455;23;20015;-73
2024/03/03 00:24:49;;;;;;;3.03;2.60;;;;;;;;;;1252920;23;20054;-74
2024/03/03 00:25:19;;;;;;;5.13;2.58;;;;;;;;;;1252706;23;20011;-74
2024/03/03 00:25:50;;;;;;;4.95;2.80;;;;;;;;;;1252995;23;20220;-74
2024/03/03 00:26:20;;;;;;;9.85;2.15;;;;;;;;;;1252552;23;20010;-73
2024/03/03 00:26:50;;;;;;;0.20;0.20;;;;;;;;;;1253025;23;20007;-74
2024/03/03 00:27:21;;;;;;;4.28;3.90;;;;;;;;;;1252931;23;20005;-74
2024/03/03 00:27:51;;;;;;;1.90;1.17;;;;;;;;;;1246976;23;20011;-73
2024/03/03 00:28:22;;;;;;;1.80;1.70;;;;;;;;;;1246665;23;20343;-74
2024/03/03 00:28:52;;;;;;;10.05;3.95;;;;;;;;;;1247074;23;20007;-73
2024/03/03 00:29:23;;;;;;;2.40;2.20;;;;;;;;;;1247224;23;20007;-73
2024/03/03 00:29:53;;;;;;;1.85;1.80;;;;;;;;;;1252617;23;20061;-74
2024/03/03 00:30:24;;;;;;;3.22;2.72;;;;;;;;;;1247117;23;19999;-74
2024/03/03 00:30:54;;;;;;;2.50;2.30;;;;;;;;;;1252727;23;20447;-74
2024/03/03 00:31:24;;;;;;;1.38;1.33;;;;;;;;;;1252716;23;20316;-74
2024/03/03 00:31:55;;;;;;;1.55;1.23;;;;;;;;;;1252833;23;20340;-74
2024/03/03 00:32:27;;;;;;;1.95;1.85;;;;;;;;;;1246746;23;20011;-74
2024/03/03 00:32:57;;;;;;;11.57;8.80;;;;;;;;;;1246971;23;20023;-74
2024/03/03 00:33:28;;;;;;;4.35;2.58;;;;;;;;;;1246793;23;20424;-73
2024/03/03 00:33:58;;;;;;;8.30;1.75;;;;;;;;;;1247247;23;20349;-74
2024/03/03 00:34:29;;;;;;;2.72;1.45;;;;;;;;;;1252832;23;20082;-73
2024/03/03 00:34:59;;;;;;;1.45;1.40;;;;;;;;;;1246766;23;20054;-74
2024/03/03 00:35:30;;;;;;;2.53;1.73;;;;;;;;;;1246771;23;20015;-74
2024/03/03 00:36:00;;;;;;;0.55;0.55;;;;;;;;;;1246993;23;20000;-74
2024/03/03 00:36:31;;;;;;;5.40;4.88;;;;;;;;;;1246785;23;20061;-73
2024/03/03 00:37:01;;;;;;;1.48;1.42;;;;;;;;;;1246491;23;20092;-73
2024/03/03 00:37:32;;;;;;;0.50;0.47;;;;;;;;;;1246844;23;20086;-74
2024/03/03 00:38:02;;;;;;;1.73;1.65;;;;;;;;;;1246982;23;20007;-74
2024/03/03 00:38:34;;;;;;;2.17;2.08;;;;;;;;;;1252930;23;20108;-74
2024/03/03 00:39:05;;;;;;;10.15;1.63;;;;;;;;;;1253050;23;20510;-74
2024/03/03 00:39:36;;;;;;;0.73;0.73;;;;;;;;;;1252477;23;20007;-74
2024/03/03 00:40:07;;;;;;;2.05;1.95;;;;;;;;;;1252217;23;20011;-73
2024/03/03 00:40:39;;;;;;;4.35;3.55;;;;;;;;;;1247256;23;20012;-73
2024/03/03 00:41:09;;;;;;;2.22;2.08;;;;;;;;;;1247011;23;20336;-74
2024/03/03 00:41:40;;;;;;;0.60;0.60;;;;;;;;;;1247275;23;20011;-74
2024/03/03 00:42:10;;;;;;;2.22;1.70;;;;;;;;;;1247229;23;20011;-74
2024/03/03 00:42:41;;;;;;;1.35;0.47;;;;;;;;;;1247495;23;20042;-74
2024/03/03 00:43:11;;;;;;;1.73;1.65;;;;;;;;;;1247044;23;20469;-73
2024/03/03 00:43:42;;;;;;;5.47;2.42;;;;;;;;;;1247262;23;20011;-73
2024/03/03 00:44:13;;;;;;;6.20;2.80;;;;;;;;;;1252598;23;20026;-73
2024/03/03 00:44:43;;;;;;;2.28;2.10;;;;;;;;;;1252575;23;20015;-73
2024/03/03 00:45:14;;;;;;;3.65;2.88;;;;;;;;;;1252710;23;20003;-74
2024/03/03 00:45:44;;;;;;;1.27;1.23;;;;;;;;;;1252571;23;20013;-74
2024/03/03 00:46:15;;;;;;;1.80;1.55;;;;;;;;;;1252581;23;20089;-74
2024/03/03 00:46:47;;;;;;;1.63;1.52;;;;;;;;;;1246786;23;20454;-74
2024/03/03 00:47:17;;;;;;;1.75;1.65;;;;;;;;;;1246889;23;20017;-74
2024/03/03 00:47:48;;;;;;;4.07;3.53;;;;;;;;;;1241163;23;20012;-73
2024/03/03 00:48:19;;;;;;;3.30;1.80;;;;;;;;;;1241063;23;20008;-74
2024/03/03 00:48:49;;;;;;;2.45;2.25;;;;;;;;;;1241043;23;20007;-73
2024/03/03 00:49:19;;;;;;;3.17;2.67;;;;;;;;;;1241176;23;20332;-74
2024/03/03 00:49:50;;;;;;;5.50;2.38;;;;;;;;;;1247048;23;20391;-74
2024/03/03 00:50:20;;;;;;;1.40;1.30;;;;;;;;;;1240836;23;20321;-73
2024/03/03 00:50:51;;;;;;;2.83;1.88;;;;;;;;;;1247138;23;20011;-73
2024/03/03 00:51:22;;;;;;;8.90;2.08;;;;;;;;;;1246837;23;20007;-74
2024/03/03 00:51:52;;;;;;;1.67;1.58;;;;;;;;;;1241195;23;20019;-74
2024/03/03 00:52:23;;;;;;;3.45;3.15;;;;;;;;;;1240807;23;20015;-73
2024/03/03 00:52:56;;;;;;;4.32;1.73;;;;;;;;;;1246883;23;20015;-73
2024/03/03 00:53:26;;;;;;;12.18;4.05;;;;;;;;;;1278452;23;19996;-73
2024/03/03 00:53:57;;;;;;;1.85;1.75;;;;;;;;;;1277840;23;20004;-74
2024/03/03 00:54:27;;;;;;;1.67;1.40;;;;;;;;;;1277617;23;20012;-73
2024/03/03 00:54:58;;;;;;;2.72;2.55;;;;;;;;;;1277291;23;20004;-73
2024/03/03 00:55:28;;;;;;;5.22;2.97;;;;;;;;;;1246812;23;20015;-73
2024/03/03 00:55:59;;;;;;;2.72;1.42;;;;;;;;;;1247162;23;20046;-74
2024/03/03 00:56:29;;;;;;;2.08;1.98;;;;;;;;;;1246770;23;20343;-74
2024/03/03 00:57:00;;;;;;;0.98;0.98;;;;;;;;;;1246907;23;20007;-74
2024/03/03 00:57:30;;;;;;;4.15;2.30;;;;;;;;;;1246950;23;20014;-74
2024/03/03 00:58:02;;;;;;;2.13;2.03;;;;;;;;;;1252654;23;20085;-73
2024/03/03 00:58:32;;;;;;;0.30;0.30;;;;;;;;;;1252769;23;20094;-74
2024/03/03 00:59:03;;;;;;;4.60;1.95;;;;;;;;;;1252508;23;20039;-74
2024/03/03 00:59:34;;;;;;;0.73;0.73;;;;;;;;;;1247155;23;20085;-73
2024/03/03 01:00:05;;;;;;;1.20;1.20;;;;;;;;;;1247163;23;20042;-74
2024/03/03 01:00:35;;;;;;;8.63;2.25;;;;;;;;;;1246898;23;20007;-73
2024/03/03 01:01:06;;;;;;;4.00;3.22;;;;;;;;;;1247414;23;20089;-73
2024/03/03 01:01:36;;;;;;;3.90;2.72;;;;;;;;;;1247431;23;20042;-74
2024/03/03 01:02:07;;;;;;;1.27;1.08;;;;;;;;;;1252779;23;20034;-74
2024/03/03 01:02:37;;;;;;;3.65;1.85;;;;;;;;;;1252507;23;20424;-74
2024/03/03 01:03:08;;;;;;;2.25;2.08;;;;;;;;;;1252770;23;20352;-73
2024/03/03 01:03:39;;;;;;;13.00;3.75;;;;;;;;;;1246688;23;20017;-73
2024/03/03 01:04:09;;;;;;;4.13;1.95;;;;;;;;;;1246832;23;20090;-74
2024/03/03 01:04:39;;;;;;;4.57;2.10;;;;;;;;;;1246799;23;20011;-73
2024/03/03 01:05:11;;;;;;;1.75;1.55;;;;;;;;;;1246731;23;20015;-74
2024/03/03 01:05:41;;;;;;;2.72;2.45;;;;;;;;;;1252654;23;20018;-74
2024/03/03 01:06:12;;;;;;;1.10;1.05;;;;;;;;;;1246899;23;20408;-73
2024/03/03 01:06:42;;;;;;;1.30;1.20;;;;;;;;;;1246657;23;20011;-73
2024/03/03 01:07:13;;;;;;;2.60;1.17;;;;;;;;;;1246867;23;20003;-73
2024/03/03 01:07:44;;;;;;;3.83;1.95;;;;;;;;;;1246994;23;20332;-73
2024/03/03 01:08:14;;;;;;;17.50;2.55;;;;;;;;;;1252520;23;20046;-74
2024/03/03 01:08:45;;;;;;;2.47;2.28;;;;;;;;;;1252943;23;20118;-73
2024/03/03 01:09:17;;;;;;;1.15;1.08;;;;;;;;;;1246726;23;20094;-74
2024/03/03 01:09:48;;;;;;;2.15;1.42;;;;;;;;;;1247178;23;20074;-74
2024/03/03 01:10:18;;;;;;;2.58;1.80;;;;;;;;;;1246836;23;20011;-74
2024/03/03 01:10:49;;;;;;;3.72;1.92;;;;;;;;;;1246924;23;20007;-73
2024/03/03 01:11:19;;;;;;;1.65;1.50;;;;;;;;;;1252858;23;20154;-74
2024/03/03 01:11:53;;;;;;;3.15;0.68;;;;;;;;;;1252747;23;20335;-74
2024/03/03 01:12:24;;;;;;;6.38;2.33;;;;;;;;;;1252610;23;20013;-74
2024/03/03 01:12:54;;;;;;;2.78;2.58;;;;;;;;;;1251829;23;20399;-73
2024/03/03 01:13:25;;;;;;;4.57;2.72;;;;;;;;;;1252543;23;20022;-74
2024/03/03 01:13:55;;;;;;;5.55;2.95;;;;;;;;;;1252698;23;20105;-74
2024/03/03 01:14:25;;;;;;;4.53;2.67;;;;;;;;;;1252542;23;20045;-73
2024/03/03 01:14:56;;;;;;;0.47;0.47;;;;;;;;;;1252732;23;20006;-73
2024/03/03 01:15:26;;;;;;;1.70;1.60;;;;;;;;;;1247418;23;20466;-73
2024/03/03 01:15:57;;;;;;;3.17;2.85;;;;;;;;;;1247153;23;20086;-73
2024/03/03 01:16:27;;;;;;;2.25;2.15;;;;;;;;;;1247186;23;20005;-73
2024/03/03 01:16:58;;;;;;;4.38;3.42;;;;;;;;;;1248028;23;20034;-74
2024/03/03 01:17:28;;;;;;;7.05;4.45;;;;;;;;;;1247009;23;20011;-73
2024/03/03 01:17:59;;;;;;;7.38;3.70;;;;;;;;;;1247173;23;20003;-73
2024/03/03 01:18:29;;;;;;;4.95;4.57;;;;;;;;;;1247073;23;20014;-73
2024/03/03 01:19:00;;;;;;;3.95;2.95;;;;;;;;;;1252846;23;20015;-74
2024/03/03 01:19:30;;;;;;;1.70;1.60;;;;;;;;;;1246833;23;20456;-73
2024/03/03 01:20:01;;;;;;;2.92;2.72;;;;;;;;;;1277637;23;20724;-73
2024/03/03 01:20:31;;;;;;;2.22;1.42;;;;;;;;;;1277920;23;20009;-74
2024/03/03 01:21:02;;;;;;;4.35;2.58;;;;;;;;;;1278103;23;20040;-74
2024/03/03 01:21:32;;;;;;;3.20;2.80;;;;;;;;;;1277025;23;20009;-73
2024/03/03 01:22:03;;;;;;;3.13;2.25;;;;;;;;;;1245832;23;20043;-73
2024/03/03 01:22:33;;;;;;;5.00;2.85;;;;;;;;;;1246876;23;20081;-74
2024/03/03 01:23:05;;;;;;;3.60;2.20;;;;;;;;;;1246754;23;20019;-73
2024/03/03 01:23:36;;;;;;;1.15;1.05;;;;;;;;;;1253170;23;20493;-74
2024/03/03 01:24:07;;;;;;;2.97;1.92;;;;;;;;;;1247218;23;20149;-74
2024/03/03 01:24:38;;;;;;;1.38;1.33;;;;;;;;;;1246697;23;20340;-73
2024/03/03 01:25:08;;;;;;;0.85;0.75;;;;;;;;;;1246780;23;20042;-74
2024/03/03 01:25:39;;;;;;;0.40;0.40;;;;;;;;;;1247037;23;20372;-74
2024/03/03 01:26:09;;;;;;;5.38;1.05;;;;;;;;;;1252616;23;20018;-73
2024/03/03 01:26:40;;;;;;;1.67;1.58;;;;;;;;;;1252724;23;20089;-74
2024/03/03 01:27:10;;;;;;;15.70;3.63;;;;;;;;;;1252795;23;20522;-73
2024/03/03 01:27:40;;;;;;;3.92;2.40;;;;;;;;;;1252587;23;20423;-73
2024/03/03 01:28:11;;;;;;;5.10;1.75;;;;;;;;;;1246926;23;20460;-74
2024/03/03 01:28:41;;;;;;;1.90;1.80;;;;;;;;;;1240913;23;20018;-74
2024/03/03 01:29:12;;;;;;;1.70;1.55;;;;;;;;;;1241089;23;20470;-73
2024/03/03 01:29:42;;;;;;;1.95;1.85;;;;;;;;;;1241043;23;20012;-74
2024/03/03 01:30:13;;;;;;;3.35;3.05;;;;;;;;;;1246989;23;20078;-74
2024/03/03 01:30:43;;;;;;;3.92;3.03;;;;;;;;;;1253077;23;20017;-74
2024/03/03 01:31:14;;;;;;;1.63;1.42;;;;;;;;;;1253025;23;20011;-74
2024/03/03 01:31:45;;;;;;;1.13;1.10;;;;;;;;;;1252696;23;20007;-73
2024/03/03 01:32:16;;;;;;;1.88;1.77;;;;;;;;;;1252373;23;20007;-74
2024/03/03 01:32:46;;;;;;;2.40;2.20;;;;;;;;;;1246802;23;20035;-73
2024/03/03 01:33:17;;;;;;;4.75;1.55;;;;;;;;;;1246716;23;20026;-73
2024/03/03 01:33:47;;;;;;;2.05;1.95;;;;;;;;;;1247417;23;20027;-74
2024/03/03 01:34:18;;;;;;;1.77;1.67;;;;;;;;;;1246893;23;20011;-73
2024/03/03 01:34:49;;;;;;;3.00;1.92;;;;;;;;;;1247428;23;20078;-74
2024/03/03 01:35:19;;;;;;;6.05;2.13;;;;;;;;;;1252765;23;20017;-74
2024/03/03 01:35:50;;;;;;;2.20;2.05;;;;;;;;;;1252898;23;20011;-74
2024/03/03 01:36:21;;;;;;;3.42;1.13;;;;;;;;;;1252879;23;20015;-73
2024/03/03 01:36:52;;;;;;;3.40;2.00;;;;;;;;;;1252301;23;20404;-74
2024/03/03 01:37:23;;;;;;;1.60;1.50;;;;;;;;;;1252709;23;20062;-73
2024/03/03 01:37:54;;;;;;;2.97;2.67;;;;;;;;;;1253196;23;20050;-73
2024/03/03 01:38:24;;;;;;;1.90;1.80;;;;;;;;;;1247084;23;20011;-74
2024/03/03 01:38:55;;;;;;;0.60;0.60;;;;;;;;;;1241234;23;20436;-73
2024/03/03 01:39:25;;;;;;;3.30;3.00;;;;;;;;;;1241100;23;20010;-73
2024/03/03 01:39:56;;;;;;;2.50;2.17;;;;;;;;;;1241051;23;20487;-73
2024/03/03 01:40:26;;;;;;;0.98;0.98;;;;;;;;;;1271708;23;20009;-74
2024/03/03 01:40:57;;;;;;;0.55;0.38;;;;;;;;;;1277843;23;20064;-73
2024/03/03 01:41:27;;;;;;;3.20;2.13;;;;;;;;;;1271406;23;19997;-74
2024/03/03 01:41:58;;;;;;;2.05;1.95;;;;;;;;;;1271188;23;20009;-75
2024/03/03 01:42:28;;;;;;;5.78;3.53;;;;;;;;;;1246788;23;20011;-74
2024/03/03 01:43:02;;;;;;;1.48;1.20;;;;;;;;;;1247350;23;20541;-74
2024/03/03 01:43:34;;;;;;;1.10;1.10;;;;;;;;;;1252169;23;20007;-74
2024/03/03 01:44:05;;;;;;;4.15;1.45;;;;;;;;;;1252788;23;20055;-74
2024/03/03 01:44:35;;;;;;;3.45;2.05;;;;;;;;;;1252609;23;20011;-74
2024/03/03 01:45:06;;;;;;;0.50;0.50;;;;;;;;;;1252771;23;20011;-74
2024/03/03 01:45:37;;;;;;;1.00;1.00;;;;;;;;;;1252666;23;20006;-73
2024/03/03 01:46:09;;;;;;;1.05;0.98;;;;;;;;;;1252796;23;20015;-73
2024/03/03 01:46:39;;;;;;;1.70;1.58;;;;;;;;;;1246707;23;20093;-73
2024/03/03 01:47:12;;;;;;;0.45;0.45;;;;;;;;;;1240994;23;20011;-74
2024/03/03 01:47:42;;;;;;;1.70;1.42;;;;;;;;;;1235386;24;20003;-74
2024/03/03 01:48:13;;;;;;;8.57;1.65;;;;;;;;;;1235558;23;20008;-73
2024/03/03 01:48:44;;;;;;;2.30;2.17;;;;;;;;;;1241601;23;20011;-73
2024/03/03 01:49:15;;;;;;;2.35;2.20;;;;;;;;;;1247054;23;20014;-74
2024/03/03 01:49:47;;;;;;;1.17;1.13;;;;;;;;;;1247210;23;20371;-74
2024/03/03 01:50:19;;;;;;;1.25;1.15;;;;;;;;;;1246429;23;20018;-73
2024/03/03 01:50:50;;;;;;;3.03;1.90;;;;;;;;;;1241223;23;20468;-74
2024/03/03 01:51:21;;;;;;;1.02;1.00;;;;;;;;;;1242002;23;20012;-74
2024/03/03 01:51:52;;;;;;;2.38;2.15;;;;;;;;;;1241711;23;20007;-73
2024/03/03 01:52:25;;;;;;;1.77;1.67;;;;;;;;;;1241491;23;20015;-73
2024/03/03 01:52:56;;;;;;;1.58;1.48;;;;;;;;;;1247657;23;20017;-75
2024/03/03 01:53:26;;;;;;;2.42;2.33;;;;;;;;;;1247606;23;20439;-73
2024/03/03 01:53:57;;;;;;;4.15;3.15;;;;;;;;;;1252056;23;20070;-74
2024/03/03 01:54:27;;;;;;;1.52;1.42;;;;;;;;;;1246670;23;20455;-74
2024/03/03 01:54:58;;;;;;;2.92;2.63;;;;;;;;;;1246580;23;20003;-73
2024/03/03 01:55:29;;;;;;;2.00;1.90;;;;;;;;;;1246782;23;20012;-73
2024/03/03 01:56:00;;;;;;;2.08;1.98;;;;;;;;;;1247274;23;20051;-74
2024/03/03 01:56:31;;;;;;;11.25;4.43;;;;;;;;;;1247317;23;20011;-74
2024/03/03 01:57:03;;;;;;;8.13;2.10;;;;;;;;;;1252846;23;20019;-74
2024/03/03 01:57:34;;;;;;;0.82;0.82;;;;;;;;;;1246853;23;20088;-73
2024/03/03 01:58:06;;;;;;;1.55;1.48;;;;;;;;;;1246868;23;20022;-73
2024/03/03 01:58:39;;;;;;;1.65;1.55;;;;;;;;;;1240972;23;20011;-74
2024/03/03 01:59:10;;;;;;;1.17;1.05;;;;;;;;;;1241267;23;20337;-74
2024/03/03 01:59:41;;;;;;;0.35;0.35;;;;;;;;;;1242081;23;20015;-74
2024/03/03 02:00:13;;;;;;;1.67;1.02;;;;;;;;;;1247186;23;20061;-74
2024/03/03 02:00:45;;;;;;;1.10;1.02;;;;;;;;;;1247069;23;20019;-73
2024/03/03 02:01:17;;;;;;;4.85;1.27;;;;;;;;;;1247338;23;20006;-74
2024/03/03 02:01:47;;;;;;;2.10;2.03;;;;;;;;;;1247281;23;20007;-74
2024/03/03 02:02:18;;;;;;;1.08;0.98;;;;;;;;;;1246998;23;20004;-74
2024/03/03 02:02:49;;;;;;;1.73;1.63;;;;;;;;;;1252625;23;20415;-73
2024/03/03 02:03:19;;;;;;;1.67;1.58;;;;;;;;;;1252453;23;20045;-73
2024/03/03 02:03:51;;;;;;;3.10;1.40;;;;;;;;;;1252715;23;20316;-73
2024/03/03 02:04:21;;;;;;;3.20;2.47;;;;;;;;;;1252392;23;20131;-74
2024/03/03 02:04:52;;;;;;;1.70;1.60;;;;;;;;;;1247069;23;20011;-74
2024/03/03 02:05:23;;;;;;;0.63;0.40;;;;;;;;;;1246997;23;20094;-74
2024/03/03 02:05:54;;;;;;;3.42;2.50;;;;;;;;;;1252675;23;20351;-74
2024/03/03 02:06:27;;;;;;;0.52;0.52;;;;;;;;;;1253116;23;20011;-75
2024/03/03 02:06:58;;;;;;;2.70;2.47;;;;;;;;;;1253153;23;20068;-73
2024/03/03 02:07:28;;;;;;;7.00;1.80;;;;;;;;;;1251753;23;20375;-74
2024/03/03 02:07:59;;;;;;;0.60;0.60;;;;;;;;;;1252919;23;20017;-73
2024/03/03 02:08:30;;;;;;;0.85;0.85;;;;;;;;;;1252359;23;20085;-74
2024/03/03 02:09:00;;;;;;;4.43;2.40;;;;;;;;;;1252667;23;20015;-74
2024/03/03 02:09:31;;;;;;;0.60;0.60;;;;;;;;;;1246687;23;20422;-74
2024/03/03 02:10:01;;;;;;;7.03;2.65;;;;;;;;;;1246691;23;20509;-74
2024/03/03 02:10:32;;;;;;;9.52;2.88;;;;;;;;;;1246950;23;20349;-73
2024/03/03 02:11:03;;;;;;;2.67;2.05;;;;;;;;;;1246931;23;20012;-74
2024/03/03 02:11:34;;;;;;;9.90;3.13;;;;;;;;;;1253028;23;20467;-73
2024/03/03 02:12:05;;;;;;;4.63;4.20;;;;;;;;;;1252792;23;20398;-73
2024/03/03 02:12:36;;;;;;;0.20;0.20;;;;;;;;;;1246659;23;20077;-73
2024/03/03 02:13:07;;;;;;;1.70;1.63;;;;;;;;;;1246670;23;20011;-74
2024/03/03 02:13:37;;;;;;;3.53;3.22;;;;;;;;;;1246695;23;20042;-74
2024/03/03 02:14:08;;;;;;;2.67;2.20;;;;;;;;;;1246790;23;20011;-73
2024/03/03 02:14:38;;;;;;;6.30;2.55;;;;;;;;;;1252772;23;20007;-74
2024/03/03 02:15:09;;;;;;;2.15;1.98;;;;;;;;;;1252592;23;20817;-73
2024/03/03 02:15:39;;;;;;;9.60;4.50;;;;;;;;;;1247114;23;20502;-73
2024/03/03 02:16:10;;;;;;;4.25;3.97;;;;;;;;;;1247426;23;20018;-74
2024/03/03 02:16:40;;;;;;;1.85;1.75;;;;;;;;;;1247192;23;20011;-74
2024/03/03 02:17:11;;;;;;;2.53;2.38;;;;;;;;;;1253029;23;20007;-74
2024/03/03 02:17:41;;;;;;;4.93;3.83;;;;;;;;;;1252834;23;20050;-74
2024/03/03 02:18:12;;;;;;;3.05;2.85;;;;;;;;;;1247224;23;20155;-74
2024/03/03 02:18:42;;;;;;;2.17;1.23;;;;;;;;;;1246788;23;20059;-74
2024/03/03 02:19:13;;;;;;;3.92;3.47;;;;;;;;;;1247088;23;20090;-74
2024/03/03 02:19:43;;;;;;;2.47;2.28;;;;;;;;;;1247194;23;20011;-74
2024/03/03 02:20:14;;;;;;;4.88;4.25;;;;;;;;;;1247121;23;20011;-73
2024/03/03 02:20:44;;;;;;;2.35;2.15;;;;;;;;;;1247287;23;20039;-73
2024/03/03 02:21:20;;;;;;;4.68;2.90;;;;;;;;;;1252996;23;20085;-73
2024/03/03 02:21:51;;;;;;;1.05;0.98;;;;;;;;;;1246472;23;20011;-73
2024/03/03 02:22:21;;;;;;;12.13;2.22;;;;;;;;;;1246794;23;20018;-73
2024/03/03 02:22:52;;;;;;;2.47;2.28;;;;;;;;;;1246982;23;20137;-74
2024/03/03 02:23:22;;;;;;;3.30;2.63;;;;;;;;;;1247196;23;20011;-74
2024/03/03 02:23:52;;;;;;;5.53;1.90;;;;;;;;;;1253029;23;20011;-74
2024/03/03 02:24:23;;;;;;;3.17;2.30;;;;;;;;;;1252792;23;20443;-73
2024/03/03 02:24:53;;;;;;;8.48;3.88;;;;;;;;;;1247029;23;20431;-73
2024/03/03 02:25:26;;;;;;;2.78;2.05;;;;;;;;;;1246926;23;20443;-74
2024/03/03 02:25:56;;;;;;;1.23;1.08;;;;;;;;;;1247080;23;20006;-74
2024/03/03 02:26:27;;;;;;;3.63;2.50;;;;;;;;;;1241610;23;20139;-74
2024/03/03 02:26:57;;;;;;;15.15;3.88;;;;;;;;;;1246970;23;20018;-73
2024/03/03 02:27:28;;;;;;;1.60;1.50;;;;;;;;;;1271831;23;20330;-73
2024/03/03 02:28:00;;;;;;;2.63;2.42;;;;;;;;;;1272106;23;20013;-74
2024/03/03 02:28:31;;;;;;;2.75;2.03;;;;;;;;;;1278185;23;20036;-74
2024/03/03 02:29:03;;;;;;;10.13;3.10;;;;;;;;;;1276217;23;20012;-74
2024/03/03 02:29:34;;;;;;;2.28;1.23;;;;;;;;;;1252086;23;20021;-74
2024/03/03 02:30:05;;;;;;;2.90;1.45;;;;;;;;;;1252893;23;20498;-74
2024/03/03 02:30:35;;;;;;;14.23;4.60;;;;;;;;;;1247392;23;20000;-74
2024/03/03 02:31:06;;;;;;;3.85;2.85;;;;;;;;;;1247411;23;20094;-73
2024/03/03 02:31:37;;;;;;;8.23;2.55;;;;;;;;;;1246840;23;20521;-73
2024/03/03 02:32:08;;;;;;;3.85;1.40;;;;;;;;;;1247307;23;20007;-74
2024/03/03 02:32:38;;;;;;;2.03;1.90;;;;;;;;;;1252934;23;20010;-74
2024/03/03 02:33:10;;;;;;;2.47;1.38;;;;;;;;;;1252679;23;20018;-74
2024/03/03 02:33:40;;;;;;;2.90;1.70;;;;;;;;;;1252840;23;20399;-73
2024/03/03 02:34:11;;;;;;;3.45;1.35;;;;;;;;;;1246970;23;20011;-74
2024/03/03 02:34:41;;;;;;;4.88;1.27;;;;;;;;;;1278051;23;20096;-74
2024/03/03 02:35:12;;;;;;;2.25;2.05;;;;;;;;;;1278336;23;19997;-74
2024/03/03 02:35:42;;;;;;;1.60;1.52;;;;;;;;;;1272188;23;20005;-73
2024/03/03 02:36:13;;;;;;;5.28;3.05;;;;;;;;;;1277639;23;20013;-74
2024/03/03 02:36:43;;;;;;;2.22;1.90;;;;;;;;;;1240672;23;20007;-73
2024/03/03 02:37:14;;;;;;;3.53;3.03;;;;;;;;;;1241316;23;20014;-73
2024/03/03 02:37:46;;;;;;;5.45;3.03;;;;;;;;;;1240950;23;20294;-74
2024/03/03 02:38:16;;;;;;;0.73;0.73;;;;;;;;;;1242011;23;20527;-74
2024/03/03 02:38:50;;;;;;;2.83;1.85;;;;;;;;;;1247132;23;20011;-74
2024/03/03 02:39:21;;;;;;;5.70;3.50;;;;;;;;;;1248220;23;20011;-74
2024/03/03 02:39:51;;;;;;;4.38;1.95;;;;;;;;;;1253051;23;20102;-74
2024/03/03 02:40:22;;;;;;;3.33;3.03;;;;;;;;;;1252686;23;20007;-73
2024/03/03 02:40:53;;;;;;;2.40;1.63;;;;;;;;;;1253062;23;20011;-73
2024/03/03 02:41:23;;;;;;;1.65;1.55;;;;;;;;;;1252581;23;20017;-74
2024/03/03 02:41:54;;;;;;;1.50;1.42;;;;;;;;;;1253105;23;20015;-74
2024/03/03 02:42:25;;;;;;;4.93;1.35;;;;;;;;;;1246758;23;20014;-74
2024/03/03 02:42:55;;;;;;;1.85;1.23;;;;;;;;;;1246957;23;20011;-73
2024/03/03 02:43:26;;;;;;;1.58;1.13;;;;;;;;;;1247299;23;20074;-73
2024/03/03 02:43:56;;;;;;;1.73;1.63;;;;;;;;;;1247246;23;20086;-74
2024/03/03 02:44:27;;;;;;;4.10;1.60;;;;;;;;;;1252664;23;19998;-74
2024/03/03 02:44:57;;;;;;;5.10;1.55;;;;;;;;;;1247513;23;20065;-73
2024/03/03 02:45:28;;;;;;;3.88;2.15;;;;;;;;;;1246738;23;20094;-73
2024/03/03 02:45:58;;;;;;;5.05;3.67;;;;;;;;;;1246881;23;20026;-73
2024/03/03 02:46:29;;;;;;;1.98;1.80;;;;;;;;;;1241224;23;20003;-74
2024/03/03 02:46:59;;;;;;;8.43;2.50;;;;;;;;;;1247015;23;20138;-74
2024/03/03 02:47:30;;;;;;;3.38;3.08;;;;;;;;;;1247025;23;20003;-74
2024/03/03 02:48:00;;;;;;;5.57;5.07;;;;;;;;;;1247073;23;20062;-73
2024/03/03 02:48:31;;;;;;;7.90;3.05;;;;;;;;;;1252912;23;20464;-73
2024/03/03 02:49:03;;;;;;;0.98;0.98;;;;;;;;;;1252877;23;20086;-74
2024/03/03 02:49:33;;;;;;;2.03;1.92;;;;;;;;;;1247189;23;20035;-73
2024/03/03 02:50:04;;;;;;;2.58;2.40;;;;;;;;;;1246844;23;20046;-74
2024/03/03 02:50:34;;;;;;;1.90;1.75;;;;;;;;;;1247004;23;20586;-73
2024/03/03 02:51:05;;;;;;;2.67;2.42;;;;;;;;;;1246950;23;20007;-74
2024/03/03 02:51:36;;;;;;;1.02;1.02;;;;;;;;;;1247557;23;20011;-74
2024/03/03 02:52:06;;;;;;;3.47;1.17;;;;;;;;;;1247220;23;20011;-74
2024/03/03 02:52:37;;;;;;;2.13;1.30;;;;;;;;;;1252725;23;20073;-74
2024/03/03 02:53:07;;;;;;;4.38;2.90;;;;;;;;;;1253249;23;20006;-73
2024/03/03 02:53:38;;;;;;;1.60;1.50;;;;;;;;;;1252613;23;19995;-73
2024/03/03 02:54:08;;;;;;;1.20;0.93;;;;;;;;;;1247037;23;20007;-73
2024/03/03 02:54:38;;;;;;;2.20;1.95;;;;;;;;;;1246915;23;20092;-74
2024/03/03 02:55:09;;;;;;;2.20;0.90;;;;;;;;;;1246712;23;20408;-74
2024/03/03 02:55:39;;;;;;;0.85;0.82;;;;;;;;;;1246668;23;20033;-73
2024/03/03 02:56:10;;;;;;;4.05;1.77;;;;;;;;;;1253123;23;20007;-73
2024/03/03 02:56:41;;;;;;;1.73;1.65;;;;;;;;;;1252688;23;19999;-73
2024/03/03 02:57:11;;;;;;;1.20;1.20;;;;;;;;;;1253418;23;20007;-73
2024/03/03 02:57:42;;;;;;;2.15;1.98;;;;;;;;;;1246830;23;20010;-73
2024/03/03 02:58:12;;;;;;;2.08;1.25;;;;;;;;;;1247479;23;20006;-74
2024/03/03 02:58:42;;;;;;;0.60;0.60;;;;;;;;;;1241112;23;20091;-73
2024/03/03 02:59:13;;;;;;;7.07;3.03;;;;;;;;;;1241221;23;20011;-73
2024/03/03 02:59:43;;;;;;;0.65;0.65;;;;;;;;;;1246830;23;20336;-73
2024/03/03 03:00:14;;;;;;;2.63;2.42;;;;;;;;;;1246837;23;20034;-74
2024/03/03 03:00:44;;;;;;;2.78;2.55;;;;;;;;;;1247331;23;20478;-74
2024/03/03 03:01:15;;;;;;;0.70;0.70;;;;;;;;;;1252653;23;20006;-73
2024/03/03 03:01:45;;;;;;;1.45;1.35;;;;;;;;;;1253120;23;20010;-73
2024/03/03 03:02:16;;;;;;;0.77;0.77;;;;;;;;;;1246892;23;20526;-74
2024/03/03 03:02:47;;;;;;;3.72;2.15;;;;;;;;;;1247041;23;20379;-73
2024/03/03 03:03:17;;;;;;;2.97;2.78;;;;;;;;;;1246986;23;20014;-74
2024/03/03 03:03:48;;;;;;;2.75;2.40;;;;;;;;;;1247534;23;20018;-73
2024/03/03 03:04:18;;;;;;;0.57;0.57;;;;;;;;;;1246637;23;20007;-73